Time;durP1;ratioP1;P1;durP2;ratioP2;P2;SDS_P1;SDS_P2;PMS_P1;PMS_P2;Temp;Humidity;BMP_temperature;BMP_pressure;BME280_temperature;BME280_humidity;BME280_pressure;Samples;Min_cycle;Max_cycle;Signal;HPM_P1;HPM_P2
2020/12/16 00:01:54;;;;;;;;;;;;;;;;;;5096139;28;19904;-78
2020/12/16 00:04:20;;;;;;;;;;;;;;;;;;5096095;28;19965;-73
2020/12/16 00:06:46;;;;;;;;;;;;;;;;;;5096040;28;19912;-72
2020/12/16 00:09:12;;;;;;;;;;;;;;;;;;5095959;28;19911;-74
2020/12/16 00:11:38;;;;;;;;;;;;;;;;;;5077862;28;19915;-74
2020/12/16 00:14:04;;;;;;;;;;;;;;;;;;5096468;28;19949;-73
2020/12/16 00:16:30;;;;;;;;;;;;;;;;;;5095830;28;19923;-74
2020/12/16 00:18:56;;;;;;;;;;;;;;;;;;5095848;28;19911;-73
2020/12/16 00:21:22;;;;;;;;;;;;;;;;;;5096132;28;19911;-74
2020/12/16 00:23:48;;;;;;;;;;;;;;;;;;5095753;28;19908;-74
2020/12/16 00:26:14;;;;;;;;;;;;;;;;;;5095674;28;19940;-74
2020/12/16 00:28:40;;;;;;;;;;;;;;;;;;5096266;28;19911;-74
2020/12/16 00:31:06;;;;;;;;;;;;;;;;;;5095634;28;19926;-74
2020/12/16 00:33:32;;;;;;;;;;;;;;;;;;5095563;28;19904;-74
2020/12/16 00:35:58;;;;;;;;;;;;;;;;;;5095706;28;19916;-74
2020/12/16 00:38:25;;;;;;;;;;;;;;;;;;5096035;28;19908;-73
2020/12/16 00:40:51;;;;;;;;;;;;;;;;;;5095356;28;19946;-74
2020/12/16 00:43:17;;;;;;;;;;;;;;;;;;5095189;28;19966;-74
2020/12/16 00:45:43;;;;;;;;;;;;;;;;;;5095289;28;19927;-74
2020/12/16 00:48:09;;;;;;;;;;;;;;;;;;5095537;28;19915;-74
2020/12/16 00:50:35;;;;;;;;;;;;;;;;;;5095177;28;19904;-74
2020/12/16 00:53:01;;;;;;;;;;;;;;;;;;5093105;28;20251;-74
2020/12/16 00:55:27;;;;;;;;;;;;;;;;;;5095051;28;20282;-74
2020/12/16 00:57:53;;;;;;;;;;;;;;;;;;5095075;28;20377;-74
2020/12/16 01:00:19;;;;;;;;;;;;;;;;;;5095037;28;19973;-74
2020/12/16 01:02:45;;;;;;;;;;;;;;;;;;5093992;28;19904;-73
2020/12/16 01:05:11;;;;;;;;;;;;;;;;;;5095001;28;19904;-74
2020/12/16 01:07:37;;;;;;;;;;;;;;;;;;5094907;28;19904;-74
2020/12/16 01:10:03;;;;;;;;;;;;;;;;;;5094817;28;19904;-74
2020/12/16 01:12:29;;;;;;;;;;;;;;;;;;5094806;28;19904;-74
2020/12/16 01:14:55;;;;;;;;;;;;;;;;;;5095286;28;19957;-74
2020/12/16 01:17:21;;;;;;;;;;;;;;;;;;5094723;28;19908;-74
2020/12/16 01:19:47;;;;;;;;;;;;;;;;;;5094726;28;20278;-74
2020/12/16 01:22:13;;;;;;;;;;;;;;;;;;5094634;28;20377;-74
2020/12/16 01:24:39;;;;;;;;;;;;;;;;;;5094598;28;19911;-74
2020/12/16 01:27:05;;;;;;;;;;;;;;;;;;5094847;28;19965;-74
2020/12/16 01:29:31;;;;;;;;;;;;;;;;;;5094492;28;19904;-74
2020/12/16 01:31:57;;;;;;;;;;;;;;;;;;5094734;28;19927;-74
2020/12/16 01:34:23;;;;;;;;;;;;;;;;;;5094486;28;19904;-74
2020/12/16 01:36:49;;;;;;;;;;;;;;;;;;5094886;28;19912;-74
2020/12/16 01:39:15;;;;;;;;;;;;;;;;;;5094474;28;19904;-73
2020/12/16 01:41:41;;;;;;;;;;;;;;;;;;5094176;28;19908;-73
2020/12/16 01:44:07;;;;;;;;;;;;;;;;;;5094626;28;19904;-73
2020/12/16 01:46:33;;;;;;;;;;;;;;;;;;5094611;28;19904;-73
2020/12/16 01:48:59;;;;;;;;;;;;;;;;;;5094571;28;19943;-73
2020/12/16 01:51:26;;;;;;;;;;;;;;;;;;5094522;28;19963;-73
2020/12/16 01:53:52;;;;;;;;;;;;;;;;;;5094253;28;19904;-73
2020/12/16 01:56:18;;;;;;;;;;;;;;;;;;5094121;28;20272;-73
2020/12/16 01:58:44;;;;;;;;;;;;;;;;;;5094446;28;20354;-73
2020/12/16 02:01:10;;;;;;;;;;;;;;;;;;5094113;28;20354;-73
2020/12/16 02:03:36;;;;;;;;;;;;;;;;;;5094092;28;20112;-75
2020/12/16 02:06:02;;;;;;;;;;;;;;;;;;5094650;28;19970;-73
2020/12/16 02:08:28;;;;;;;;;;;;;;;;;;5094049;28;20017;-73
2020/12/16 02:10:54;;;;;;;;;;;;;;;;;;5094587;28;19912;-73
2020/12/16 02:13:20;;;;;;;;;;;;;;;;;;5094287;28;19927;-72
2020/12/16 02:15:46;;;;;;;;;;;;;;;;;;5099188;28;20320;-73
2020/12/16 02:18:12;;;;;;;;;;;;;;;;;;5098106;28;20439;-72
2020/12/16 02:20:38;;;;;;;;;;;;;;;;;;5098379;28;20404;-72
2020/12/16 02:23:04;;;;;;;;;;;;;;;;;;5098409;28;19904;-72
2020/12/16 02:25:30;;;;;;;;;;;;;;;;;;5098068;28;19999;-72
2020/12/16 02:27:56;;;;;;;;;;;;;;;;;;5097996;28;19904;-72
2020/12/16 02:30:22;;;;;;;;;;;;;;;;;;5098514;28;19911;-73
2020/12/16 02:32:48;;;;;;;;;;;;;;;;;;5097914;28;19978;-72
2020/12/16 02:35:14;;;;;;;;;;;;;;;;;;5098381;28;19966;-72
2020/12/16 02:37:40;;;;;;;;;;;;;;;;;;5097805;28;19911;-73
2020/12/16 02:40:06;;;;;;;;;;;;;;;;;;5097813;28;20418;-72
2020/12/16 02:42:32;;;;;;;;;;;;;;;;;;5097485;28;19923;-72
2020/12/16 02:44:58;;;;;;;;;;;;;;;;;;5097658;28;19915;-72
2020/12/16 02:47:24;;;;;;;;;;;;;;;;;;5097656;28;19911;-72
2020/12/16 02:49:50;;;;;;;;;;;;;;;;;;5098126;28;19957;-72
2020/12/16 02:52:16;;;;;;;;;;;;;;;;;;5097562;28;19911;-73
2020/12/16 02:54:42;;;;;;;;;;;;;;;;;;5097472;28;19904;-73
2020/12/16 02:57:08;;;;;;;;;;;;;;;;;;5097681;28;19912;-73
2020/12/16 02:59:34;;;;;;;;;;;;;;;;;;5097402;28;20357;-73
2020/12/16 03:02:01;;;;;;;;;;;;;;;;;;5097263;28;19911;-73
2020/12/16 03:04:27;;;;;;;;;;;;;;;;;;5097283;28;19904;-73
2020/12/16 03:06:53;;;;;;;;;;;;;;;;;;5097528;28;20016;-73
2020/12/16 03:09:19;;;;;;;;;;;;;;;;;;5097844;28;19931;-73
2020/12/16 03:11:45;;;;;;;;;;;;;;;;;;5097479;28;20277;-73
2020/12/16 03:14:11;;;;;;;;;;;;;;;;;;5097627;28;20346;-73
2020/12/16 03:16:37;;;;;;;;;;;;;;;;;;5096956;28;20354;-73
2020/12/16 03:19:03;;;;;;;;;;;;;;;;;;5097026;28;20010;-73
2020/12/16 03:21:29;;;;;;;;;;;;;;;;;;5096928;28;20354;-73
2020/12/16 03:23:55;;;;;;;;;;;;;;;;;;5097242;28;20309;-73
2020/12/16 03:26:21;;;;;;;;;;;;;;;;;;5095615;28;20007;-73
2020/12/16 03:28:47;;;;;;;;;;;;;;;;;;5096812;28;20349;-73
2020/12/16 03:31:13;;;;;;;;;;;;;;;;;;5097063;28;19904;-73
2020/12/16 03:33:39;;;;;;;;;;;;;;;;;;5096757;28;19951;-73
2020/12/16 03:36:05;;;;;;;;;;;;;;;;;;5096665;28;19919;-73
2020/12/16 03:38:31;;;;;;;;;;;;;;;;;;5096584;28;19904;-73
2020/12/16 03:40:57;;;;;;;;;;;;;;;;;;5096582;28;19907;-73
2020/12/16 03:43:23;;;;;;;;;;;;;;;;;;5096340;28;19916;-73
2020/12/16 03:45:50;;;;;;;;;;;;;;;;;;5096474;28;19904;-73
2020/12/16 03:48:16;;;;;;;;;;;;;;;;;;5097035;28;19912;-73
2020/12/16 03:50:42;;;;;;;;;;;;;;;;;;5096375;28;19904;-73
2020/12/16 03:53:08;;;;;;;;;;;;;;;;;;5096364;28;19915;-73
2020/12/16 03:55:34;;;;;;;;;;;;;;;;;;5096271;28;19912;-73
2020/12/16 03:58:00;;;;;;;;;;;;;;;;;;5096237;28;19904;-73
2020/12/16 04:00:26;;;;;;;;;;;;;;;;;;5096269;28;19904;-73
2020/12/16 04:02:52;;;;;;;;;;;;;;;;;;5096460;28;19904;-73
2020/12/16 04:05:18;;;;;;;;;;;;;;;;;;5096415;28;19969;-73
2020/12/16 04:07:44;;;;;;;;;;;;;;;;;;5096381;28;19907;-73
2020/12/16 04:10:10;;;;;;;;;;;;;;;;;;5096046;28;20002;-73
2020/12/16 04:12:36;;;;;;;;;;;;;;;;;;5096570;28;19908;-73
2020/12/16 04:15:02;;;;;;;;;;;;;;;;;;5096165;28;19908;-73
2020/12/16 04:17:28;;;;;;;;;;;;;;;;;;5096151;28;19908;-73
2020/12/16 04:19:54;;;;;;;;;;;;;;;;;;5096105;28;20258;-73
2020/12/16 04:22:20;;;;;;;;;;;;;;;;;;5095728;28;19907;-73
2020/12/16 04:24:46;;;;;;;;;;;;;;;;;;5096345;28;19994;-73
2020/12/16 04:27:12;;;;;;;;;;;;;;;;;;5095954;28;19904;-73
2020/12/16 04:29:38;;;;;;;;;;;;;;;;;;5095591;28;19915;-73
2020/12/16 04:32:04;;;;;;;;;;;;;;;;;;5095528;28;19903;-72
2020/12/16 04:34:30;;;;;;;;;;;;;;;;;;5095523;28;20354;-73
2020/12/16 04:36:56;;;;;;;;;;;;;;;;;;5095215;28;19969;-73
2020/12/16 04:39:22;;;;;;;;;;;;;;;;;;5095473;28;19911;-72
2020/12/16 04:41:48;;;;;;;;;;;;;;;;;;5095719;28;19959;-73
2020/12/16 04:44:14;;;;;;;;;;;;;;;;;;5095673;28;19911;-72
2020/12/16 04:46:40;;;;;;;;;;;;;;;;;;5095888;28;19915;-72
2020/12/16 04:49:07;;;;;;;;;;;;;;;;;;5095343;28;19904;-72
2020/12/16 04:51:33;;;;;;;;;;;;;;;;;;5095189;28;19904;-72
2020/12/16 04:53:59;;;;;;;;;;;;;;;;;;5095784;28;19908;-72
2020/12/16 04:56:25;;;;;;;;;;;;;;;;;;5095085;28;19912;-73
2020/12/16 04:58:51;;;;;;;;;;;;;;;;;;5095666;28;19904;-73
2020/12/16 05:01:17;;;;;;;;;;;;;;;;;;5095076;28;19970;-73
2020/12/16 05:03:43;;;;;;;;;;;;;;;;;;5095215;28;19910;-72
2020/12/16 05:06:09;;;;;;;;;;;;;;;;;;5094996;28;19908;-73
2020/12/16 05:08:35;;;;;;;;;;;;;;;;;;5094987;28;19957;-73
2020/12/16 05:11:01;;;;;;;;;;;;;;;;;;5094869;28;19904;-73
2020/12/16 05:13:27;;;;;;;;;;;;;;;;;;5094846;28;20273;-73
2020/12/16 05:15:53;;;;;;;;;;;;;;;;;;5095054;28;19912;-73
2020/12/16 05:18:19;;;;;;;;;;;;;;;;;;5094736;28;19904;-73
2020/12/16 05:20:45;;;;;;;;;;;;;;;;;;5094613;28;19904;-73
2020/12/16 05:23:11;;;;;;;;;;;;;;;;;;5094965;28;20308;-73
2020/12/16 05:25:37;;;;;;;;;;;;;;;;;;5094947;28;19904;-73
2020/12/16 05:28:03;;;;;;;;;;;;;;;;;;5094645;28;19945;-73
2020/12/16 05:30:29;;;;;;;;;;;;;;;;;;5094569;28;20350;-73
2020/12/16 05:32:55;;;;;;;;;;;;;;;;;;5094521;28;20373;-73
2020/12/16 05:35:21;;;;;;;;;;;;;;;;;;5094730;28;19907;-73
2020/12/16 05:37:47;;;;;;;;;;;;;;;;;;5094477;28;19904;-73
2020/12/16 05:40:13;;;;;;;;;;;;;;;;;;5094455;28;19904;-73
2020/12/16 05:42:39;;;;;;;;;;;;;;;;;;5094190;28;19923;-73
2020/12/16 05:45:05;;;;;;;;;;;;;;;;;;5094925;28;19912;-73
2020/12/16 05:47:31;;;;;;;;;;;;;;;;;;5094289;28;19911;-73
2020/12/16 05:49:57;;;;;;;;;;;;;;;;;;5094218;28;19911;-73
2020/12/16 05:52:23;;;;;;;;;;;;;;;;;;5094268;28;19904;-73
2020/12/16 05:54:50;;;;;;;;;;;;;;;;;;5094116;28;19904;-73
2020/12/16 05:57:19;;;;;;;;;;;;;;;;;;5094191;28;19908;-73
2020/12/16 05:59:45;;;;;;;;;;;;;;;;;;5094117;28;19908;-72
2020/12/16 06:02:11;;;;;;;;;;;;;;;;;;5094114;28;19904;-72
2020/12/16 06:04:37;;;;;;;;;;;;;;;;;;5094111;28;19904;-72
2020/12/16 06:07:03;;;;;;;;;;;;;;;;;;5094671;28;19904;-72
2020/12/16 06:09:29;;;;;;;;;;;;;;;;;;5094004;28;19949;-72
2020/12/16 06:11:55;;;;;;;;;;;;;;;;;;5093971;28;19910;-72
2020/12/16 06:14:22;;;;;;;;;;;;;;;;;;5094031;28;19911;-72
2020/12/16 06:16:48;;;;;;;;;;;;;;;;;;5093877;28;20379;-72
2020/12/16 06:19:14;;;;;;;;;;;;;;;;;;5094265;28;19949;-73
2020/12/16 06:21:40;;;;;;;;;;;;;;;;;;5093926;28;20007;-72
2020/12/16 06:24:06;;;;;;;;;;;;;;;;;;5093834;28;19911;-72
2020/12/16 06:26:32;;;;;;;;;;;;;;;;;;5093812;28;19911;-73
2020/12/16 06:28:58;;;;;;;;;;;;;;;;;;5093830;28;19950;-73
2020/12/16 06:31:24;;;;;;;;;;;;;;;;;;5094436;28;19911;-73
2020/12/16 06:33:50;;;;;;;;;;;;;;;;;;5094629;28;19907;-73
2020/12/16 06:36:16;;;;;;;;;;;;;;;;;;5093660;28;19927;-73
2020/12/16 06:38:42;;;;;;;;;;;;;;;;;;5093737;28;19911;-73
2020/12/16 06:41:08;;;;;;;;;;;;;;;;;;5093689;28;19934;-73
2020/12/16 06:43:34;;;;;;;;;;;;;;;;;;5093561;28;19961;-73
2020/12/16 06:46:00;;;;;;;;;;;;;;;;;;5093620;28;19904;-73
2020/12/16 06:48:26;;;;;;;;;;;;;;;;;;5093564;28;19904;-68
2020/12/16 06:50:52;;;;;;;;;;;;;;;;;;5093611;28;19939;-71
2020/12/16 06:53:18;;;;;;;;;;;;;;;;;;5093588;28;19908;-70
2020/12/16 06:55:44;;;;;;;;;;;;;;;;;;5093471;28;19912;-72
2020/12/16 06:58:10;;;;;;;;;;;;;;;;;;5093564;28;19904;-72
2020/12/16 07:00:36;;;;;;;;;;;;;;;;;;5095769;28;19911;-68
2020/12/16 07:03:02;;;;;;;;;;;;;;;;;;5097396;28;19911;-68
2020/12/16 07:05:28;;;;;;;;;;;;;;;;;;5097302;28;19915;-67
2020/12/16 07:07:55;;;;;;;;;;;;;;;;;;5097159;28;19911;-68
2020/12/16 07:10:21;;;;;;;;;;;;;;;;;;5097768;28;19904;-68
2020/12/16 07:12:47;;;;;;;;;;;;;;;;;;5097154;28;19935;-68
2020/12/16 07:15:13;;;;;;;;;;;;;;;;;;5097130;28;19904;-68
2020/12/16 07:17:39;;;;;;;;;;;;;;;;;;5097449;28;19912;-68
2020/12/16 07:20:05;;;;;;;;;;;;;;;;;;5098244;28;19908;-69
2020/12/16 07:22:31;;;;;;;;;;;;;;;;;;5098231;28;19908;-69
2020/12/16 07:24:57;;;;;;;;;;;;;;;;;;5099832;28;19904;-67
2020/12/16 07:27:23;;;;;;;;;;;;;;;;;;5097106;28;19904;-67
2020/12/16 07:29:49;;;;;;;;;;;;;;;;;;5097045;28;19908;-67
2020/12/16 07:32:15;;;;;;;;;;;;;;;;;;5097021;28;19957;-67
2020/12/16 07:34:41;;;;;;;;;;;;;;;;;;5096933;28;19973;-67
2020/12/16 07:37:07;;;;;;;;;;;;;;;;;;5096923;28;20281;-68
2020/12/16 07:39:33;;;;;;;;;;;;;;;;;;5096931;28;20353;-68
2020/12/16 07:41:59;;;;;;;;;;;;;;;;;;5096552;28;19923;-69
2020/12/16 07:44:25;;;;;;;;;;;;;;;;;;5096741;28;20313;-73
2020/12/16 07:46:51;;;;;;;;;;;;;;;;;;5095378;28;20415;-73
2020/12/16 07:49:18;;;;;;;;;;;;;;;;;;5096606;28;20373;-73
2020/12/16 07:51:44;;;;;;;;;;;;;;;;;;5096488;28;19908;-73
2020/12/16 07:54:10;;;;;;;;;;;;;;;;;;5096384;28;19911;-74
2020/12/16 07:56:36;;;;;;;;;;;;;;;;;;5096900;28;19912;-73
2020/12/16 07:59:02;;;;;;;;;;;;;;;;;;5096258;28;19930;-73
2020/12/16 08:01:28;;;;;;;;;;;;;;;;;;5096826;28;19961;-73
2020/12/16 08:03:54;;;;;;;;;;;;;;;;;;5096151;28;19910;-73
2020/12/16 08:06:20;;;;;;;;;;;;;;;;;;5096637;28;20038;-73
2020/12/16 08:08:48;;;;;;;;;;;;;;;;;;5096021;28;19949;-73
2020/12/16 08:11:14;;;;;;;;;;;;;;;;;;5095379;28;19904;-73
2020/12/16 08:13:40;;;;;;;;;;;;;;;;;;5095968;28;20354;-73
2020/12/16 08:16:06;;;;;;;;;;;;;;;;;;5095898;28;19912;-73
2020/12/16 08:18:32;;;;;;;;;;;;;;;;;;5095943;28;19904;-73
2020/12/16 08:20:58;;;;;;;;;;;;;;;;;;5095836;28;19932;-73
2020/12/16 08:23:24;;;;;;;;;;;;;;;;;;5096074;28;19910;-74
2020/12/16 08:25:50;;;;;;;;;;;;;;;;;;5095730;28;19908;-73
2020/12/16 08:28:16;;;;;;;;;;;;;;;;;;5095657;28;19904;-74
2020/12/16 08:30:42;;;;;;;;;;;;;;;;;;5096217;28;19904;-73
2020/12/16 08:33:08;;;;;;;;;;;;;;;;;;5095899;28;19908;-73
2020/12/16 08:35:34;;;;;;;;;;;;;;;;;;5095521;28;20014;-73
2020/12/16 08:38:00;;;;;;;;;;;;;;;;;;5095422;28;19904;-73
2020/12/16 08:40:26;;;;;;;;;;;;;;;;;;5095398;28;19957;-73
2020/12/16 08:42:52;;;;;;;;;;;;;;;;;;5095235;28;19923;-73
2020/12/16 08:45:19;;;;;;;;;;;;;;;;;;5095414;28;19923;-73
2020/12/16 08:47:45;;;;;;;;;;;;;;;;;;5095956;28;19905;-73
2020/12/16 08:50:11;;;;;;;;;;;;;;;;;;5095861;28;20242;-73
2020/12/16 08:52:37;;;;;;;;;;;;;;;;;;5095565;28;19904;-73
2020/12/16 08:55:03;;;;;;;;;;;;;;;;;;5095135;28;20007;-73
2020/12/16 08:57:29;;;;;;;;;;;;;;;;;;5077059;28;19908;-72
2020/12/16 08:59:55;;;;;;;;;;;;;;;;;;5095083;28;19904;-73
2020/12/16 09:02:21;;;;;;;;;;;;;;;;;;5095266;28;20273;-73
2020/12/16 09:04:47;;;;;;;;;;;;;;;;;;5094863;28;20350;-71
2020/12/16 09:07:14;;;;;;;;;;;;;;;;;;5076660;28;20354;-71
2020/12/16 09:09:40;;;;;;;;;;;;;;;;;;5094721;28;19911;-71
2020/12/16 09:12:06;;;;;;;;;;;;;;;;;;5094684;28;19980;-73
2020/12/16 09:14:34;;;;;;;;;;;;;;;;;;5095310;28;19911;-71
2020/12/16 09:17:00;;;;;;;;;;;;;;;;;;5094622;28;19912;-70
2020/12/16 09:19:26;;;;;;;;;;;;;;;;;;5094586;28;19904;-66
2020/12/16 09:21:52;;;;;;;;;;;;;;;;;;5095175;28;19911;-66
2020/12/16 09:24:18;;;;;;;;;;;;;;;;;;5093708;28;19908;-66
2020/12/16 09:26:45;;;;;;;;;;;;;;;;;;5094533;28;19904;-68
2020/12/16 09:29:11;;;;;;;;;;;;;;;;;;5094473;28;20010;-68
2020/12/16 09:31:37;;;;;;;;;;;;;;;;;;5094404;28;19904;-67
2020/12/16 09:34:04;;;;;;;;;;;;;;;;;;5094449;28;19904;-66
2020/12/16 09:36:30;;;;;;;;;;;;;;;;;;5094541;28;20479;-67
2020/12/16 09:38:57;;;;;;;;;;;;;;;;;;5094345;28;19995;-67
2020/12/16 09:41:23;;;;;;;;;;;;;;;;;;5094432;28;19974;-67
2020/12/16 09:43:49;;;;;;;;;;;;;;;;;;5094930;28;19916;-67
2020/12/16 09:46:15;;;;;;;;;;;;;;;;;;5094323;28;19904;-66
2020/12/16 09:48:41;;;;;;;;;;;;;;;;;;5094873;28;19904;-67
2020/12/16 09:51:07;;;;;;;;;;;;;;;;;;5094557;28;19904;-67
2020/12/16 09:53:33;;;;;;;;;;;;;;;;;;5094474;28;19957;-67
2020/12/16 09:55:59;;;;;;;;;;;;;;;;;;5094397;28;20277;-68
2020/12/16 09:58:25;;;;;;;;;;;;;;;;;;5094994;28;20274;-67
2020/12/16 10:00:51;;;;;;;;;;;;;;;;;;5094082;28;20377;-67
2020/12/16 10:03:20;;;;;;;;;;;;;;;;;;5075981;28;19911;-67
2020/12/16 10:05:46;;;;;;;;;;;;;;;;;;5093991;28;19911;-67
2020/12/16 10:08:14;;;;;;;;;;;;;;;;;;5094280;28;19904;-67
2020/12/16 10:10:40;;;;;;;;;;;;;;;;;;5093965;28;19904;-67
2020/12/16 10:13:06;;;;;;;;;;;;;;;;;;5093889;28;19904;-68
2020/12/16 10:15:32;;;;;;;;;;;;;;;;;;5094460;28;19912;-68
2020/12/16 10:17:58;;;;;;;;;;;;;;;;;;5093809;28;19908;-67
2020/12/16 10:20:24;;;;;;;;;;;;;;;;;;5093836;28;19904;-68
2020/12/16 10:22:50;;;;;;;;;;;;;;;;;;5093715;28;20036;-67
2020/12/16 10:25:16;;;;;;;;;;;;;;;;;;5094264;28;19911;-67
2020/12/16 10:27:42;;;;;;;;;;;;;;;;;;5093796;28;19904;-68
2020/12/16 10:30:08;;;;;;;;;;;;;;;;;;5094378;28;19908;-68
2020/12/16 10:32:39;;;;;;;;;;;;;;;;;;5093765;28;19904;-68
2020/12/16 10:35:05;;;;;;;;;;;;;;;;;;5095534;28;19947;-68
2020/12/16 10:37:32;;;;;;;;;;;;;;;;;;5097825;28;20269;-68
2020/12/16 10:39:58;;;;;;;;;;;;;;;;;;5097964;28;19945;-69
2020/12/16 10:42:24;;;;;;;;;;;;;;;;;;5097533;28;20438;-68
2020/12/16 10:44:51;;;;;;;;;;;;;;;;;;5097593;28;20385;-68
2020/12/16 10:47:17;;;;;;;;;;;;;;;;;;5097683;28;20362;-68
2020/12/16 10:49:43;;;;;;;;;;;;;;;;;;5097857;28;20270;-68
2020/12/16 10:52:09;;;;;;;;;;;;;;;;;;5097487;28;20284;-68
2020/12/16 10:54:35;;;;;;;;;;;;;;;;;;5097842;28;20352;-68
2020/12/16 10:57:01;;;;;;;;;;;;;;;;;;5097687;28;19919;-68
2020/12/16 10:59:29;;;;;;;;;;;;;;;;;;5097700;28;19911;-68
2020/12/16 11:01:55;;;;;;;;;;;;;;;;;;5097636;28;19908;-69
2020/12/16 11:04:21;;;;;;;;;;;;;;;;;;5095410;28;19975;-68
2020/12/16 11:06:47;;;;;;;;;;;;;;;;;;5096631;28;19930;-68
2020/12/16 11:09:15;;;;;;;;;;;;;;;;;;5097115;28;19911;-68
2020/12/16 11:11:41;;;;;;;;;;;;;;;;;;5097365;28;20235;-68
2020/12/16 11:14:07;;;;;;;;;;;;;;;;;;5096680;28;19904;-68
2020/12/16 11:16:33;;;;;;;;;;;;;;;;;;5096902;28;19912;-68
2020/12/16 11:18:59;;;;;;;;;;;;;;;;;;5097226;28;20320;-68
2020/12/16 11:21:25;;;;;;;;;;;;;;;;;;5096666;28;20415;-69
2020/12/16 11:23:51;;;;;;;;;;;;;;;;;;5096918;28;19911;-68
2020/12/16 11:26:17;;;;;;;;;;;;;;;;;;5096701;28;20346;-69
2020/12/16 11:28:44;;;;;;;;;;;;;;;;;;5096509;28;19904;-68
2020/12/16 11:31:10;;;;;;;;;;;;;;;;;;5096858;28;19911;-68
2020/12/16 11:33:36;;;;;;;;;;;;;;;;;;5096689;28;19911;-68
2020/12/16 11:36:02;;;;;;;;;;;;;;;;;;5096683;28;19935;-71
2020/12/16 11:38:28;;;;;;;;;;;;;;;;;;5078496;28;20308;-68
2020/12/16 11:40:54;;;;;;;;;;;;;;;;;;5096651;28;19918;-67
2020/12/16 11:43:20;;;;;;;;;;;;;;;;;;5096034;28;19916;-68
2020/12/16 11:45:46;;;;;;;;;;;;;;;;;;5096086;28;19949;-72
2020/12/16 11:48:28;;;;;;;;;;;;;;;;;;5060988;28;20286;-69
2020/12/16 11:50:54;;;;;;;;;;;;;;;;;;5095785;28;19908;-69
2020/12/16 11:53:20;;;;;;;;;;;;;;;;;;5078098;28;19947;-70
2020/12/16 11:55:46;;;;;;;;;;;;;;;;;;5096109;28;20015;-74
2020/12/16 11:58:12;;;;;;;;;;;;;;;;;;5095873;28;19915;-72
2020/12/16 12:00:38;;;;;;;;;;;;;;;;;;5096195;28;19955;-72
2020/12/16 12:03:04;;;;;;;;;;;;;;;;;;5078041;28;19919;-71
2020/12/16 12:05:30;;;;;;;;;;;;;;;;;;5095388;28;19965;-67
2020/12/16 12:07:56;;;;;;;;;;;;;;;;;;5095627;28;19908;-67
2020/12/16 12:10:23;;;;;;;;;;;;;;;;;;5096155;28;19915;-74
2020/12/16 12:12:49;;;;;;;;;;;;;;;;;;5095529;28;20430;-67
2020/12/16 12:15:15;;;;;;;;;;;;;;;;;;5095725;28;19999;-67
2020/12/16 12:17:41;;;;;;;;;;;;;;;;;;5095801;28;19951;-66
2020/12/16 12:20:07;;;;;;;;;;;;;;;;;;5095454;28;19909;-69
2020/12/16 12:22:33;;;;;;;;;;;;;;;;;;5095589;28;19908;-79
2020/12/16 12:24:59;;;;;;;;;;;;;;;;;;5095941;28;20329;-67
2020/12/16 12:27:25;;;;;;;;;;;;;;;;;;5095171;28;19911;-67
2020/12/16 12:29:51;;;;;;;;;;;;;;;;;;5095553;28;19939;-67
2020/12/16 12:32:17;;;;;;;;;;;;;;;;;;5095794;28;19908;-67
2020/12/16 12:34:43;;;;;;;;;;;;;;;;;;5095096;28;19931;-68
2020/12/16 12:37:10;;;;;;;;;;;;;;;;;;5095317;28;19916;-66
2020/12/16 12:39:36;;;;;;;;;;;;;;;;;;5095067;28;19947;-67
2020/12/16 12:42:02;;;;;;;;;;;;;;;;;;5095278;28;19927;-67
2020/12/16 12:44:28;;;;;;;;;;;;;;;;;;5096204;28;19915;-67
2020/12/16 12:46:54;;;;;;;;;;;;;;;;;;5095400;28;19963;-66
2020/12/16 12:49:20;;;;;;;;;;;;;;;;;;5095900;28;19915;-67
2020/12/16 12:51:46;;;;;;;;;;;;;;;;;;5093607;28;19950;-67
2020/12/16 12:54:12;;;;;;;;;;;;;;;;;;5095118;28;19965;-66
2020/12/16 12:56:38;;;;;;;;;;;;;;;;;;5095082;28;19916;-66
2020/12/16 12:59:04;;;;;;;;;;;;;;;;;;5095272;28;20324;-66
2020/12/16 13:01:30;;;;;;;;;;;;;;;;;;5095056;28;20332;-66
2020/12/16 13:03:56;;;;;;;;;;;;;;;;;;5095049;28;20351;-66
2020/12/16 13:06:22;;;;;;;;;;;;;;;;;;5094967;28;19912;-66
2020/12/16 13:08:49;;;;;;;;;;;;;;;;;;5095226;28;19991;-77
2020/12/16 13:11:15;;;;;;;;;;;;;;;;;;5094903;28;19908;-66
2020/12/16 13:13:41;;;;;;;;;;;;;;;;;;5094891;28;19908;-66
2020/12/16 13:16:07;;;;;;;;;;;;;;;;;;5094688;28;19916;-66
2020/12/16 13:18:33;;;;;;;;;;;;;;;;;;5094822;28;19908;-66
2020/12/16 13:20:59;;;;;;;;;;;;;;;;;;5095803;28;20325;-68
2020/12/16 13:23:27;;;;;;;;;;;;;;;;;;5094690;28;19915;-66
2020/12/16 13:25:53;;;;;;;;;;;;;;;;;;5094855;28;20314;-65
2020/12/16 13:28:19;;;;;;;;;;;;;;;;;;5094917;28;20370;-67
2020/12/16 13:30:45;;;;;;;;;;;;;;;;;;5094565;28;19908;-66
2020/12/16 13:33:11;;;;;;;;;;;;;;;;;;5094465;28;20011;-66
2020/12/16 13:35:37;;;;;;;;;;;;;;;;;;5094901;28;19912;-76
2020/12/16 13:38:03;;;;;;;;;;;;;;;;;;5094475;28;19962;-66
2020/12/16 13:40:29;;;;;;;;;;;;;;;;;;5094988;28;19919;-66
2020/12/16 13:42:55;;;;;;;;;;;;;;;;;;5094237;28;19927;-66
2020/12/16 13:45:21;;;;;;;;;;;;;;;;;;5094657;28;19908;-66
2020/12/16 13:47:47;;;;;;;;;;;;;;;;;;5094283;28;19912;-66
2020/12/16 13:50:13;;;;;;;;;;;;;;;;;;5094308;28;19947;-67
2020/12/16 13:52:39;;;;;;;;;;;;;;;;;;5094214;28;19908;-67
2020/12/16 13:55:05;;;;;;;;;;;;;;;;;;5094205;28;19908;-67
2020/12/16 13:57:31;;;;;;;;;;;;;;;;;;5094448;28;19916;-67
2020/12/16 13:59:57;;;;;;;;;;;;;;;;;;5094209;28;19908;-67
2020/12/16 14:02:23;;;;;;;;;;;;;;;;;;5094136;28;19909;-67
2020/12/16 14:04:49;;;;;;;;;;;;;;;;;;5094156;28;19912;-67
2020/12/16 14:07:15;;;;;;;;;;;;;;;;;;5094176;28;19974;-67
2020/12/16 14:09:41;;;;;;;;;;;;;;;;;;5093475;28;19916;-66
2020/12/16 14:12:08;;;;;;;;;;;;;;;;;;5094104;28;19915;-71
2020/12/16 14:14:34;;;;;;;;;;;;;;;;;;5094637;28;19998;-67
2020/12/16 14:17:01;;;;;;;;;;;;;;;;;;5094003;28;19916;-67
2020/12/16 14:19:27;;;;;;;;;;;;;;;;;;5093970;28;19908;-67
2020/12/16 14:21:53;;;;;;;;;;;;;;;;;;5094009;28;19947;-67
2020/12/16 14:24:19;;;;;;;;;;;;;;;;;;5094002;28;19912;-67
2020/12/16 14:26:45;;;;;;;;;;;;;;;;;;5094531;28;19908;-67
2020/12/16 14:29:11;;;;;;;;;;;;;;;;;;5093982;28;19908;-67
2020/12/16 14:31:37;;;;;;;;;;;;;;;;;;5094439;28;19915;-67
2020/12/16 14:34:03;;;;;;;;;;;;;;;;;;5093837;28;19985;-66
2020/12/16 14:36:29;;;;;;;;;;;;;;;;;;5093772;28;20274;-67
2020/12/16 14:38:55;;;;;;;;;;;;;;;;;;5094133;28;20259;-66
2020/12/16 14:41:21;;;;;;;;;;;;;;;;;;5093614;28;20358;-67
2020/12/16 14:43:48;;;;;;;;;;;;;;;;;;5093771;28;20006;-67
2020/12/16 14:46:14;;;;;;;;;;;;;;;;;;5093612;28;19915;-67
2020/12/16 14:48:40;;;;;;;;;;;;;;;;;;5093719;28;19915;-67
2020/12/16 14:51:06;;;;;;;;;;;;;;;;;;5093786;28;20343;-67
2020/12/16 14:53:33;;;;;;;;;;;;;;;;;;5093694;28;20385;-66
2020/12/16 14:55:59;;;;;;;;;;;;;;;;;;5093803;28;19926;-66
2020/12/16 14:58:25;;;;;;;;;;;;;;;;;;5093911;28;19916;-67
2020/12/16 15:00:51;;;;;;;;;;;;;;;;;;5093600;28;19915;-67
2020/12/16 15:03:17;;;;;;;;;;;;;;;;;;5093630;28;19908;-67
2020/12/16 15:05:44;;;;;;;;;;;;;;;;;;5093556;28;20282;-67
2020/12/16 15:08:10;;;;;;;;;;;;;;;;;;5093507;28;19908;-67
2020/12/16 15:10:36;;;;;;;;;;;;;;;;;;5094079;28;19954;-67
2020/12/16 15:13:02;;;;;;;;;;;;;;;;;;5093528;28;20290;-67
2020/12/16 15:15:28;;;;;;;;;;;;;;;;;;5093412;28;19908;-67
2020/12/16 15:17:54;;;;;;;;;;;;;;;;;;5093976;28;19912;-66
2020/12/16 15:20:20;;;;;;;;;;;;;;;;;;5093721;28;19908;-67
2020/12/16 15:22:46;;;;;;;;;;;;;;;;;;5095872;28;19971;-67
2020/12/16 15:25:12;;;;;;;;;;;;;;;;;;5097081;28;19912;-67
2020/12/16 15:27:38;;;;;;;;;;;;;;;;;;5096850;28;19912;-74
2020/12/16 15:30:04;;;;;;;;;;;;;;;;;;5097452;28;19952;-66
2020/12/16 15:32:30;;;;;;;;;;;;;;;;;;5096793;28;19915;-66
2020/12/16 15:34:57;;;;;;;;;;;;;;;;;;5096854;28;19915;-66
2020/12/16 15:37:23;;;;;;;;;;;;;;;;;;5096678;28;19916;-67
2020/12/16 15:39:49;;;;;;;;;;;;;;;;;;5096676;28;19913;-75
2020/12/16 15:42:15;;;;;;;;;;;;;;;;;;5096453;28;19927;-67
2020/12/16 15:44:41;;;;;;;;;;;;;;;;;;5096622;28;19916;-66
2020/12/16 15:47:07;;;;;;;;;;;;;;;;;;5096319;28;20370;-75
2020/12/16 15:49:33;;;;;;;;;;;;;;;;;;5096056;28;19909;-66
2020/12/16 15:51:59;;;;;;;;;;;;;;;;;;5095951;28;19969;-75
2020/12/16 15:54:25;;;;;;;;;;;;;;;;;;5096677;28;20257;-66
2020/12/16 15:56:51;;;;;;;;;;;;;;;;;;5096303;28;20381;-66
2020/12/16 15:59:17;;;;;;;;;;;;;;;;;;5078234;28;19909;-67
2020/12/16 16:01:43;;;;;;;;;;;;;;;;;;5096187;28;19908;-73
2020/12/16 16:04:09;;;;;;;;;;;;;;;;;;5096796;28;19910;-75
2020/12/16 16:06:36;;;;;;;;;;;;;;;;;;5096127;28;19908;-67
2020/12/16 16:09:02;;;;;;;;;;;;;;;;;;5094968;28;20277;-67
2020/12/16 16:11:28;;;;;;;;;;;;;;;;;;5095369;28;19908;-67
2020/12/16 16:13:54;;;;;;;;;;;;;;;;;;5095336;28;19960;-66
2020/12/16 16:16:20;;;;;;;;;;;;;;;;;;5095125;28;19969;-66
2020/12/16 16:18:46;;;;;;;;;;;;;;;;;;5095325;28;20005;-67
2020/12/16 16:21:12;;;;;;;;;;;;;;;;;;5095516;28;19908;-66
2020/12/16 16:23:38;;;;;;;;;;;;;;;;;;5095735;28;19908;-67
2020/12/16 16:26:04;;;;;;;;;;;;;;;;;;5095783;28;19915;-67
2020/12/16 16:28:30;;;;;;;;;;;;;;;;;;5096342;28;19912;-67
2020/12/16 16:30:56;;;;;;;;;;;;;;;;;;5095729;28;19908;-67
2020/12/16 16:33:22;;;;;;;;;;;;;;;;;;5095422;28;19946;-67
2020/12/16 16:35:48;;;;;;;;;;;;;;;;;;5095849;28;20355;-66
2020/12/16 16:38:15;;;;;;;;;;;;;;;;;;5095898;28;20274;-66